createdAt,value
2023-03-11T00:04:24.199Z,0.52
2023-03-11T00:09:32.918Z,0.50
2023-03-11T00:14:39.313Z,0.57
2023-03-11T00:19:58.450Z,0.87
2023-03-11T00:25:16.916Z,0.73
2023-03-11T00:30:41.333Z,0.70
2023-03-11T00:35:51.166Z,0.50
2023-03-11T00:41:03.793Z,0.63
2023-03-11T00:46:23.698Z,0.57
2023-03-11T00:51:46.882Z,0.30
2023-03-11T00:56:59.164Z,0.50
2023-03-11T01:07:41.639Z,0.23
2023-03-11T01:12:56.939Z,0.50
2023-03-11T01:18:02.542Z,0.73
2023-03-11T01:23:17.812Z,0.73
2023-03-11T01:28:40.631Z,0.60
2023-03-11T01:34:13.421Z,0.80
2023-03-11T01:39:23.406Z,0.70
2023-03-11T01:44:37.619Z,0.67
2023-03-11T01:49:53.782Z,0.87
2023-03-11T01:55:09.118Z,0.63
2023-03-11T02:00:19.827Z,0.27
2023-03-11T02:05:27.967Z,0.57
2023-03-11T02:10:49.103Z,0.47
2023-03-11T02:16:20.784Z,0.40
2023-03-11T02:21:36.921Z,0.70
2023-03-11T02:26:44.143Z,0.60
2023-03-11T02:31:55.995Z,0.60
2023-03-11T02:37:23.845Z,0.70
2023-03-11T02:43:04.426Z,0.33
2023-03-11T02:48:32.017Z,0.47
2023-03-11T02:53:44.948Z,0.60
2023-03-11T02:58:54.084Z,0.50
2023-03-11T03:04:30.929Z,0.70
2023-03-11T03:09:45.343Z,0.70
2023-03-11T03:15:04.177Z,0.40
2023-03-11T03:20:44.179Z,0.57
2023-03-11T03:25:57.861Z,0.57
2023-03-11T03:31:11.243Z,0.73
2023-03-11T03:36:25.118Z,0.60
2023-03-11T03:47:08.879Z,0.30
2023-03-11T03:52:37.253Z,0.30
2023-03-11T03:57:47.998Z,0.27
2023-03-11T04:03:23.061Z,0.50
2023-03-11T04:08:35.095Z,0.30
2023-03-11T04:14:01.589Z,0.40
2023-03-11T04:19:08.764Z,0.53
2023-03-11T04:24:33.297Z,0.23
2023-03-11T04:29:50.970Z,0.30
2023-03-11T04:35:14.759Z,0.40
2023-03-11T04:40:34.428Z,0.40
2023-03-11T04:45:51.663Z,0.43
2023-03-11T04:51:01.650Z,0.80
2023-03-11T04:56:11.294Z,0.10
2023-03-11T05:01:34.999Z,0.70
2023-03-11T05:12:14.654Z,0.40
2023-03-11T05:17:30.738Z,0.57
2023-03-11T05:22:47.384Z,0.60
2023-03-11T05:27:55.870Z,0.80
2023-03-11T05:33:01.308Z,0.77
2023-03-11T05:38:21.341Z,0.90
2023-03-11T05:43:37.764Z,0.35
2023-03-11T05:48:47.268Z,0.53
2023-03-11T05:54:04.284Z,0.70
2023-03-11T05:59:23.616Z,0.87
2023-03-11T06:04:32.873Z,0.70
2023-03-11T06:09:54.258Z,0.80
2023-03-11T06:15:13.683Z,0.63
2023-03-11T06:20:34.086Z,0.50
2023-03-11T06:26:05.932Z,0.60
2023-03-11T06:31:19.224Z,1.10
2023-03-11T06:36:33.588Z,0.43
2023-03-11T06:41:46.238Z,0.60
2023-03-11T06:46:53.668Z,0.90
2023-03-11T06:52:09.772Z,0.90
2023-03-11T06:57:28.140Z,1.03
2023-03-11T07:02:53.642Z,1.00
2023-03-11T07:07:59.146Z,0.95
2023-03-11T07:13:22.243Z,0.60
2023-03-11T07:23:58.039Z,0.63
2023-03-11T07:29:01.646Z,1.08
2023-03-11T07:34:05.785Z,0.60
2023-03-11T07:39:13.974Z,0.77
2023-03-11T07:44:17.304Z,1.50
2023-03-11T07:49:20.472Z,1.48
2023-03-11T07:54:25.167Z,1.33
2023-03-11T07:59:29.376Z,1.35
2023-03-11T08:09:37.236Z,1.63
2023-03-11T08:14:41.271Z,2.00
2023-03-11T08:19:44.064Z,1.63
2023-03-11T08:29:51.142Z,1.60
2023-03-11T08:34:53.856Z,2.80
2023-03-11T08:39:56.830Z,1.50
2023-03-11T08:45:00.957Z,1.20
2023-03-11T08:50:05.601Z,1.30
2023-03-11T08:55:11.325Z,3.70
2023-03-11T09:00:16.437Z,1.45
2023-03-11T09:05:19.143Z,1.10
2023-03-11T09:10:21.692Z,0.98
2023-03-11T09:15:27.591Z,1.20
2023-03-11T09:20:31.040Z,1.92
2023-03-11T09:30:41.658Z,1.60
2023-03-11T09:35:44.899Z,1.95
2023-03-11T09:40:57.928Z,1.50
2023-03-11T09:46:05.871Z,1.00
2023-03-11T09:51:12.216Z,1.85
2023-03-11T09:56:18.227Z,1.10
2023-03-11T10:01:26.196Z,1.08
2023-03-11T10:06:33.204Z,1.60
2023-03-11T10:11:45.600Z,1.52
2023-03-11T10:16:54.009Z,1.80
2023-03-11T10:22:08.242Z,1.00
2023-03-11T10:27:22.247Z,1.27
2023-03-11T10:32:39.564Z,0.80
2023-03-11T10:37:49.618Z,0.85
2023-03-11T10:42:53.162Z,1.80
2023-03-11T10:47:58.845Z,1.27
2023-03-11T10:53:09.318Z,1.70
2023-03-11T10:58:13.805Z,0.95
2023-03-11T11:03:22.819Z,0.90
2023-03-11T11:08:25.469Z,1.30
2023-03-11T11:13:31.176Z,1.25
2023-03-11T11:18:37.344Z,1.23
2023-03-11T11:23:42.378Z,1.60
2023-03-11T11:28:46.284Z,1.40
2023-03-11T11:33:52.320Z,1.40
2023-03-11T11:38:56.288Z,1.50
2023-03-11T11:44:00.959Z,1.17
2023-03-11T11:49:09.811Z,1.60
2023-03-11T11:54:17.548Z,1.15
2023-03-11T11:59:21.743Z,1.48
2023-03-11T12:04:40.127Z,1.50
2023-03-11T12:09:49.960Z,1.80
2023-03-11T12:14:57.351Z,1.60
2023-03-11T12:20:11.232Z,1.80
2023-03-11T12:25:28.270Z,1.60
2023-03-11T12:30:33.040Z,1.60
2023-03-11T12:35:37.195Z,1.60
2023-03-11T12:40:47.209Z,1.50
2023-03-11T12:45:50.624Z,1.50
2023-03-11T12:50:55.569Z,1.58
2023-03-11T12:56:03.724Z,1.10
2023-03-11T13:01:22.641Z,1.70
2023-03-11T13:06:41.110Z,1.60
2023-03-11T13:11:46.769Z,1.55
2023-03-11T13:16:49.802Z,1.38
2023-03-11T13:21:52.970Z,1.60
2023-03-11T13:26:58.197Z,1.60
2023-03-11T13:32:06.691Z,1.42
2023-03-11T13:37:18.967Z,1.50
2023-03-11T13:42:35.283Z,1.60
2023-03-11T13:47:38.244Z,1.33
2023-03-11T13:52:45.399Z,1.65
2023-03-11T13:57:52.460Z,1.23
2023-03-11T14:02:56.221Z,1.30
2023-03-11T14:08:12.528Z,1.45
2023-03-11T14:13:18.638Z,1.40
2023-03-11T14:18:36.890Z,1.55
2023-03-11T14:23:43.605Z,1.60
2023-03-11T14:28:50.706Z,1.50
2023-03-11T14:33:58.717Z,1.40
2023-03-11T14:39:02.172Z,1.30
2023-03-11T14:44:07.268Z,1.33
2023-03-11T14:49:15.929Z,1.15
2023-03-11T14:54:22.200Z,1.48
2023-03-11T14:59:27.699Z,1.33
2023-03-11T15:04:32.831Z,1.23
2023-03-11T15:09:40.268Z,1.50
2023-03-11T15:14:54.216Z,1.63
2023-03-11T15:19:56.986Z,1.40
2023-03-11T15:25:00.712Z,1.60
2023-03-11T15:30:06.461Z,1.30
2023-03-11T15:35:14.812Z,1.52
2023-03-11T15:40:26.129Z,1.30
2023-03-11T15:45:37.351Z,1.20
2023-03-11T15:50:53.420Z,1.52
2023-03-11T15:56:06.664Z,1.30
2023-03-11T16:01:12.391Z,1.23
2023-03-11T16:06:15.020Z,1.67
2023-03-11T16:11:18.740Z,1.00
2023-03-11T16:16:23.302Z,1.65
2023-03-11T16:21:30.674Z,1.60
2023-03-11T16:26:33.899Z,1.60
2023-03-11T16:31:39.713Z,1.48
2023-03-11T16:36:49.788Z,2.03
2023-03-11T16:42:02.972Z,1.30
2023-03-11T16:47:07.950Z,2.00
2023-03-11T16:52:10.927Z,1.50
2023-03-11T16:57:13.730Z,1.83
2023-03-11T17:02:18.468Z,1.70
2023-03-11T17:07:24.079Z,1.42
2023-03-11T17:12:27.091Z,1.60
2023-03-11T17:17:31.437Z,1.47
2023-03-11T17:22:34.748Z,1.50
2023-03-11T17:27:37.270Z,1.88
2023-03-11T17:32:42.097Z,1.40
2023-03-11T17:37:44.712Z,1.50
2023-03-11T17:42:47.676Z,1.40
2023-03-11T17:47:52.790Z,2.03
2023-03-11T17:52:56.625Z,1.65
2023-03-11T17:58:00.622Z,1.70
2023-03-11T18:03:05.103Z,2.90
2023-03-11T18:08:07.735Z,1.77
2023-03-11T18:13:10.917Z,1.50
2023-03-11T18:18:14.965Z,2.45
2023-03-11T18:23:18.446Z,1.70
2023-03-11T18:28:21.875Z,1.37
2023-03-11T18:33:26.040Z,1.50
2023-03-11T18:38:29.547Z,1.42
2023-03-11T18:43:32.228Z,1.80
2023-03-11T18:48:36.242Z,3.30
2023-03-11T18:53:39.809Z,2.00
2023-03-11T18:58:43.956Z,1.60
2023-03-11T19:03:49.928Z,1.58
2023-03-11T19:08:54.371Z,3.30
2023-03-11T19:13:57.269Z,2.23
2023-03-11T19:19:01.721Z,4.73
2023-03-11T19:24:04.538Z,1.97
2023-03-11T19:29:07.131Z,2.17
2023-03-11T19:34:11.097Z,2.00
2023-03-11T19:39:14.806Z,2.70
2023-03-11T19:44:18.269Z,2.70
2023-03-11T19:49:23.244Z,2.80
2023-03-11T19:54:26.655Z,3.08
2023-03-11T19:59:39.349Z,2.33
2023-03-11T20:04:44.416Z,2.00
2023-03-11T20:09:47.083Z,3.28
2023-03-11T20:14:50.512Z,4.17
2023-03-11T20:19:54.586Z,2.40
2023-03-11T20:24:57.260Z,3.33
2023-03-11T20:30:00.023Z,2.67
2023-03-11T20:35:04.282Z,1.90
2023-03-11T20:40:07.605Z,2.22
2023-03-11T20:45:10.738Z,2.53
2023-03-11T20:50:14.997Z,2.20
2023-03-11T21:05:37.104Z,1.57
2023-03-11T21:10:45.938Z,2.17
2023-03-11T21:16:09.904Z,1.83
2023-03-11T21:26:50.359Z,4.83
2023-03-11T21:32:05.582Z,2.00
2023-03-11T21:37:20.548Z,2.10
2023-03-11T21:42:34.340Z,1.90
2023-03-11T21:47:47.664Z,1.50
2023-03-11T21:53:18.655Z,1.00
2023-03-11T21:58:52.556Z,1.70
2023-03-11T22:04:01.836Z,0.87
2023-03-11T22:09:31.921Z,0.93
2023-03-11T22:14:48.079Z,0.70
2023-03-11T22:19:58.892Z,1.60
2023-03-11T22:25:15.483Z,1.50
2023-03-11T22:30:40.707Z,1.43
2023-03-11T22:36:08.677Z,1.80
2023-03-11T22:41:19.826Z,1.90
2023-03-11T22:57:19.039Z,1.37
2023-03-11T23:07:52.098Z,1.30
2023-03-11T23:13:14.282Z,1.40
2023-03-11T23:18:41.573Z,1.40
2023-03-11T23:24:09.836Z,1.10
2023-03-11T23:34:37.949Z,0.93
2023-03-11T23:39:48.290Z,2.33
2023-03-11T23:44:55.693Z,1.93
2023-03-11T23:50:08.178Z,2.20
2023-03-11T23:55:26.093Z,2.17
